Time;durP1;ratioP1;P1;durP2;ratioP2;P2;SDS_P1;SDS_P2;PMS_P1;PMS_P2;Temp;Humidity;BMP_temperature;BMP_pressure;BME280_temperature;BME280_humidity;BME280_pressure;Samples;Min_cycle;Max_cycle;Signal;HPM_P1;HPM_P2
2022/10/08 00:00:47;;;;;;;;;4.67;4.67;;;;;15.47;53.94;101707.28;5016969;28;45465;-46
2022/10/08 00:03:14;;;;;;;;;7.67;5.00;;;;;15.46;54.26;101710.97;5016885;28;45396;-46
2022/10/08 00:05:40;;;;;;;;;5.00;5.00;;;;;15.44;53.28;101710.25;5016301;28;45381;-45
2022/10/08 00:08:06;;;;;;;;;9.33;5.00;;;;;15.42;54.22;101712.25;5017078;28;45228;-44
2022/10/08 00:10:32;;;;;;;;;5.33;4.00;;;;;15.41;53.96;101702.50;5016897;28;46267;-46
2022/10/08 00:12:59;;;;;;;;;4.33;3.00;;;;;15.39;53.93;101707.22;5016909;28;45380;-43
2022/10/08 00:15:25;;;;;;;;;8.00;7.67;;;;;15.39;53.85;101712.56;5016837;28;45399;-44
2022/10/08 00:17:50;;;;;;;;;5.00;3.00;;;;;15.36;54.06;101703.97;5016909;28;45374;-45
2022/10/08 00:20:16;;;;;;;;;6.67;3.67;;;;;15.36;54.12;101704.81;5016835;28;46433;-44
2022/10/08 00:22:41;;;;;;;;;4.00;3.00;;;;;15.33;54.57;101705.13;5016733;28;45292;-45
2022/10/08 00:25:07;;;;;;;;;7.00;5.00;;;;;15.32;54.69;101702.59;5016906;28;45380;-45
2022/10/08 00:27:33;;;;;;;;;6.00;3.33;;;;;15.30;54.23;101709.97;5017147;28;45257;-45
2022/10/08 00:29:58;;;;;;;;;4.33;3.67;;;;;15.19;54.03;101697.63;5016327;28;47283;-46
2022/10/08 00:32:24;;;;;;;;;3.67;3.00;;;;;15.28;54.58;101717.31;5016697;28;45470;-44
2022/10/08 00:34:50;;;;;;;;;4.00;3.00;;;;;15.26;54.46;101706.75;5016858;28;45281;-45
2022/10/08 00:37:15;;;;;;;;;2.33;2.33;;;;;15.25;54.91;101717.63;5016811;28;45337;-46
2022/10/08 00:39:41;;;;;;;;;2.00;2.00;;;;;15.22;54.58;101714.25;5016496;28;46030;-44
2022/10/08 00:42:07;;;;;;;;;4.00;4.00;;;;;15.20;55.07;101723.44;5016488;28;45445;-45
2022/10/08 00:44:54;;;;;;;;;4.33;3.33;;;;;15.17;54.53;101711.19;5016659;28;45477;-46
2022/10/08 00:47:31;;;;;;;;;4.00;4.00;;;;;15.15;54.88;101715.84;5016831;28;45406;-43
2022/10/08 00:50:08;;;;;;;;;2.67;2.67;;;;;15.12;54.90;101713.47;5016397;28;45294;-47
2022/10/08 00:52:41;;;;;;;;;7.33;4.00;;;;;15.10;55.03;101720.84;5015484;28;45285;-47
2022/10/08 00:55:08;;;;;;;;;4.00;2.33;;;;;15.10;55.06;101720.00;5016440;28;45266;-45
2022/10/08 00:57:36;;;;;;;;;4.00;3.00;;;;;15.11;55.01;101735.91;5016648;28;45475;-48
2022/10/08 01:00:14;;;;;;;;;3.00;3.00;;;;;15.06;55.15;101718.63;5016108;28;46281;-44
2022/10/08 01:02:39;;;;;;;;;5.00;3.00;;;;;15.03;54.73;101714.41;5015913;28;45431;-47
2022/10/08 01:05:06;;;;;;;;;6.67;3.00;;;;;15.04;54.85;101712.56;5016450;28;45795;-46
2022/10/08 01:07:50;;;;;;;;;3.00;3.00;;;;;15.03;54.58;101713.56;5016567;28;45327;-45
2022/10/08 01:10:42;;;;;;;;;3.00;3.00;;;;;15.04;55.21;101720.59;5016178;28;46094;-46
2022/10/08 01:13:33;;;;;;;;;3.00;3.00;;;;;15.02;55.47;101722.59;5016118;28;45322;-44
2022/10/08 01:16:12;;;;;;;;;3.00;3.00;;;;;14.96;55.66;101710.66;5016159;28;45203;-45
2022/10/08 01:18:52;;;;;;;;;6.33;4.00;;;;;14.96;55.49;101716.84;5018997;28;45398;-46
2022/10/08 01:21:46;;;;;;;;;5.00;3.00;;;;;14.92;54.83;101712.78;5019455;28;46472;-44
2022/10/08 01:27:31;;;;;;;;;3.00;3.00;;;;;14.87;55.84;101722.25;5019896;28;45321;-45
2022/10/08 01:30:03;;;;;;;;;2.00;2.00;;;;;14.85;56.09;101718.91;5019716;28;45424;-47
2022/10/08 01:32:37;;;;;;;;;3.33;3.00;;;;;14.83;56.44;101710.16;5019362;28;46928;-45
2022/10/08 01:35:09;;;;;;;;;6.33;2.67;;;;;14.79;56.25;101708.78;5019319;28;45226;-47
2022/10/08 01:37:39;;;;;;;;;5.00;4.00;;;;;14.79;57.08;101711.44;5019615;28;45414;-47
2022/10/08 01:40:14;;;;;;;;;4.33;3.33;;;;;14.66;57.07;101693.94;5019568;28;45363;-44
2022/10/08 01:42:41;;;;;;;;;5.00;3.33;;;;;14.75;57.01;101705.56;5018603;28;45461;-44
2022/10/08 01:45:12;;;;;;;;;2.00;2.00;;;;;14.70;57.18;101702.47;5018080;28;45412;-47
2022/10/08 01:47:40;;;;;;;;;4.67;3.00;;;;;14.72;57.32;101709.38;5019342;28;45343;-47
2022/10/08 01:50:15;;;;;;;;;3.00;3.00;;;;;14.66;57.65;101698.41;5019420;28;45320;-43
2022/10/08 01:52:48;;;;;;;;;1.33;1.33;;;;;14.69;57.62;101706.16;5018885;28;46764;-43
2022/10/08 01:55:21;;;;;;;;;9.00;4.00;;;;;14.43;57.80;101668.50;5019178;28;45353;-45
2022/10/08 01:57:48;;;;;;;;;2.00;2.00;;;;;14.68;58.04;101705.31;5019165;28;45493;-46
2022/10/08 02:00:14;;;;;;;;;2.67;2.67;;;;;14.67;57.95;101709.00;5019255;28;45436;-43
2022/10/08 02:02:41;;;;;;;;;3.00;3.00;;;;;14.68;58.28;101708.00;5018635;28;46746;-44
2022/10/08 02:05:07;;;;;;;;;2.67;2.00;;;;;14.67;58.74;101697.44;5018692;28;45453;-47
2022/10/08 02:07:36;;;;;;;;;8.00;4.00;;;;;14.53;58.53;101680.03;5018961;28;45320;-45
2022/10/08 02:10:13;;;;;;;;;2.00;2.00;;;;;14.58;58.42;101690.28;5019170;28;45438;-48
2022/10/08 02:12:39;;;;;;;;;5.67;2.00;;;;;14.54;58.82;101678.19;5018624;28;45870;-43
2022/10/08 02:15:08;;;;;;;;;2.00;2.00;;;;;14.63;58.65;101696.06;5018756;28;45338;-43
2022/10/08 02:17:43;;;;;;;;;2.33;2.33;;;;;14.63;58.57;101699.59;5018764;28;45395;-44
2022/10/08 02:20:41;;;;;;;;;4.00;3.00;;;;;14.62;58.35;101705.06;5018853;28;45294;-45
2022/10/08 02:23:30;;;;;;;;;4.67;3.00;;;;;14.61;58.96;101703.38;5018441;28;46516;-46
2022/10/08 02:26:01;;;;;;;;;3.33;3.33;;;;;14.63;59.45;101702.25;5018537;28;45424;-46
2022/10/08 02:28:49;;;;;;;;;5.33;2.00;;;;;14.68;58.79;101702.66;5018367;28;45454;-46
2022/10/08 02:31:36;;;;;;;;;2.00;2.00;;;;;14.72;58.72;101703.19;4937969;28;45259;-45
2022/10/08 02:34:20;;;;;;;;;2.00;2.00;;;;;14.78;58.89;101704.41;4937900;28;46970;-45
2022/10/08 02:36:57;;;;;;;;;1.67;1.67;;;;;14.81;58.86;101706.81;4937681;28;45249;-45
2022/10/08 02:39:27;;;;;;;;;2.00;1.67;;;;;14.91;58.72;101703.03;4938120;28;45409;-45
2022/10/08 02:41:57;;;;;;;;;2.33;2.33;;;;;14.90;58.39;101689.81;4938157;28;45243;-45
2022/10/08 02:44:46;;;;;;;;;1.00;1.00;;;;;15.05;58.69;101701.69;4937801;28;46941;-43
2022/10/08 02:47:17;;;;;;;;;8.00;3.00;;;;;14.97;58.80;101694.41;4937678;28;45333;-43
2022/10/08 02:49:47;;;;;;;;;2.33;2.00;;;;;14.98;59.11;101698.78;4937931;28;45430;-44
2022/10/08 02:52:15;;;;;;;;;6.33;5.00;;;;;14.91;58.29;101695.00;4937787;28;45384;-45
2022/10/08 02:54:43;;;;;;;;;3.00;2.00;;;;;14.82;58.17;101698.59;4937316;28;45478;-45
2022/10/08 02:57:17;;;;;;;;;8.00;5.67;;;;;14.78;58.84;101699.91;4937607;28;45540;-44
2022/10/08 02:59:44;;;;;;;;;9.00;7.33;;;;;14.67;59.13;101694.78;4936922;28;45371;-44
2022/10/08 03:02:14;;;;;;;;;8.67;7.67;;;;;14.70;59.30;101697.13;4937216;28;45375;-42
2022/10/08 03:04:45;;;;;;;;;8.00;5.00;;;;;14.64;58.76;101701.25;4937430;28;45414;-43
2022/10/08 03:07:12;;;;;;;;;11.00;5.33;;;;;14.61;59.66;101698.88;4941560;28;45434;-43
2022/10/08 03:09:44;;;;;;;;;6.00;5.00;;;;;14.59;59.37;101705.38;5017865;28;45424;-45
2022/10/08 03:12:09;;;;;;;;;9.33;5.67;;;;;14.54;59.89;101708.50;5018199;28;45257;-44
2022/10/08 03:14:39;;;;;;;;;7.00;7.00;;;;;14.51;59.96;101703.44;5017599;28;47541;-42
2022/10/08 03:17:06;;;;;;;;;9.67;9.00;;;;;14.46;60.31;101703.03;4999892;28;45919;-44
2022/10/08 03:19:33;;;;;;;;;8.00;5.67;;;;;14.44;60.18;101702.31;5017885;28;45396;-44
2022/10/08 03:21:59;;;;;;;;;11.00;11.00;;;;;14.44;60.50;101708.50;5017911;28;45532;-46
2022/10/08 03:24:24;;;;;;;;;12.33;8.00;;;;;14.45;60.10;101704.00;5017347;28;46440;-45
2022/10/08 03:26:51;;;;;;;;;8.33;5.00;;;;;14.34;60.33;101690.81;5018011;28;45457;-45
2022/10/08 03:29:16;;;;;;;;;8.00;5.67;;;;;14.41;60.98;101714.19;5017953;28;45306;-46
2022/10/08 03:31:42;;;;;;;;;6.00;4.67;;;;;14.39;61.02;101712.63;5017861;28;45206;-44
2022/10/08 03:34:07;;;;;;;;;7.33;6.33;;;;;14.37;61.62;101720.81;5017527;28;46153;-46
2022/10/08 03:36:32;;;;;;;;;8.67;4.67;;;;;14.36;60.79;101724.47;5017797;28;45372;-46
2022/10/08 03:38:58;;;;;;;;;8.33;7.00;;;;;14.36;61.47;101715.59;5017737;28;45211;-45
2022/10/08 03:41:24;;;;;;;;;5.00;4.33;;;;;14.32;61.69;101709.69;5016569;28;45452;-47
2022/10/08 03:43:50;;;;;;;;;13.00;4.00;;;;;14.32;62.05;101722.22;5017452;28;46332;-44
2022/10/08 03:46:15;;;;;;;;;5.00;5.00;;;;;14.27;61.87;101724.50;5017117;28;45449;-46
2022/10/08 03:48:41;;;;;;;;;5.67;4.00;;;;;14.28;62.40;101735.06;5017553;28;45363;-46
2022/10/08 03:51:13;;;;;;;;;2.33;2.33;;;;;14.28;62.31;101736.91;5017828;28;45336;-46
2022/10/08 03:53:40;;;;;;;;;5.00;2.00;;;;;14.29;62.09;101742.13;5016265;28;45263;-44
2022/10/08 03:56:09;;;;;;;;;3.00;3.00;;;;;14.30;62.25;101737.59;5017301;28;45479;-46
2022/10/08 03:58:34;;;;;;;;;4.67;2.00;;;;;14.26;62.14;101734.38;5017247;28;45344;-46
2022/10/08 04:01:06;;;;;;;;;4.00;2.00;;;;;14.25;62.73;101738.06;5017362;28;45483;-46
2022/10/08 04:03:32;;;;;;;;;2.33;1.67;;;;;14.30;62.20;101746.47;5016860;28;45340;-46
2022/10/08 04:05:57;;;;;;;;;3.00;1.33;;;;;14.21;62.85;101729.47;5017239;28;45357;-45
2022/10/08 04:08:24;;;;;;;;;2.00;2.00;;;;;14.31;63.28;101750.84;5017140;28;45341;-46
2022/10/08 04:10:49;;;;;;;;;3.00;1.00;;;;;14.30;63.46;101742.97;5017357;28;45361;-44
2022/10/08 04:13:15;;;;;;;;;1.33;1.33;;;;;14.28;63.17;101748.44;5016134;28;45564;-46
2022/10/08 04:15:41;;;;;;;;;3.33;1.00;;;;;14.22;63.82;101738.34;5016912;28;45396;-46
2022/10/08 04:18:07;;;;;;;;;3.00;2.00;;;;;14.33;63.96;101762.25;5017124;28;45424;-45
2022/10/08 04:20:32;;;;;;;;;4.00;3.00;;;;;14.33;63.84;101756.06;5015795;28;45577;-44
2022/10/08 04:22:58;;;;;;;;;2.33;1.00;;;;;14.19;63.71;101750.16;5016804;28;45904;-45
2022/10/08 04:25:24;;;;;;;;;5.00;2.00;;;;;14.31;63.86;101760.69;5016806;28;45262;-45
2022/10/08 04:27:49;;;;;;;;;5.00;3.00;;;;;14.43;63.76;101771.09;5016955;28;45292;-45
2022/10/08 04:30:15;;;;;;;;;9.33;2.00;;;;;14.46;63.57;101775.31;5017108;28;45234;-47
2022/10/08 04:32:41;;;;;;;;;3.67;2.00;;;;;14.42;64.32;101760.53;5016678;28;46247;-46
2022/10/08 04:35:08;;;;;;;;;3.67;2.33;;;;;14.30;64.85;101749.16;5016759;28;45434;-46
2022/10/08 04:37:33;;;;;;;;;1.00;1.00;;;;;14.39;64.08;101774.19;5016611;28;45421;-47
2022/10/08 04:39:58;;;;;;;;;3.67;2.67;;;;;14.36;65.11;101771.81;5016973;28;45418;-45
2022/10/08 04:42:24;;;;;;;;;0.33;0.33;;;;;14.35;65.25;101780.84;5016714;28;46954;-46
2022/10/08 04:44:50;;;;;;;;;1.67;1.67;;;;;14.33;63.39;101777.47;5016623;28;45329;-46
2022/10/08 04:47:15;;;;;;;;;4.00;1.67;;;;;14.33;65.25;101780.16;5016493;28;45282;-45
2022/10/08 04:49:41;;;;;;;;;1.33;1.00;;;;;14.25;65.95;101764.81;5017046;28;45344;-45
2022/10/08 04:52:06;;;;;;;;;1.33;1.00;;;;;14.38;65.64;101783.22;5016636;28;45991;-44
2022/10/08 04:54:31;;;;;;;;;9.00;2.00;;;;;14.40;65.70;101794.63;5002219;28;45318;-46
2022/10/08 04:56:57;;;;;;;;;4.00;2.00;;;;;14.36;66.23;101798.56;5020103;28;45322;-46
2022/10/08 04:59:22;;;;;;;;;2.33;1.33;;;;;14.35;66.32;101804.94;5020272;28;45270;-46
2022/10/08 05:01:47;;;;;;;;;4.00;2.00;;;;;14.32;65.99;101789.16;5019819;28;47122;-46
2022/10/08 05:04:13;;;;;;;;;4.00;1.33;;;;;14.30;65.78;101791.97;5019768;28;45341;-45
2022/10/08 05:06:38;;;;;;;;;1.00;1.00;;;;;14.28;66.05;101790.44;5019985;28;45423;-46
2022/10/08 05:09:03;;;;;;;;;1.67;1.67;;;;;14.22;65.57;101791.88;5020170;28;45360;-44
2022/10/08 05:11:30;;;;;;;;;1.67;1.00;;;;;14.20;66.82;101789.34;5019748;28;46319;-45
2022/10/08 05:13:57;;;;;;;;;3.00;1.00;;;;;14.15;67.06;101788.91;5019767;28;45240;-45
2022/10/08 05:16:24;;;;;;;;;3.00;1.67;;;;;14.06;67.05;101795.13;5019711;28;45362;-45
2022/10/08 05:18:50;;;;;;;;;2.00;1.00;;;;;14.11;67.21;101811.59;5019878;28;45531;-46
2022/10/08 05:21:21;;;;;;;;;3.00;1.00;;;;;14.10;67.08;101809.06;5018644;28;46220;-43
2022/10/08 05:23:51;;;;;;;;;3.33;2.00;;;;;14.07;66.20;101809.34;5019455;28;45415;-47
2022/10/08 05:26:23;;;;;;;;;2.67;1.33;;;;;14.05;66.99;101814.84;5019835;28;45463;-43
2022/10/08 05:28:53;;;;;;;;;1.00;1.00;;;;;14.01;67.67;101818.78;5019704;28;45550;-43
2022/10/08 05:31:19;;;;;;;;;2.00;2.00;;;;;14.02;67.52;101816.97;5019336;28;46426;-46
2022/10/08 05:33:44;;;;;;;;;4.00;2.00;;;;;14.01;67.90;101823.31;5019389;28;45285;-45
2022/10/08 05:36:16;;;;;;;;;2.00;2.00;;;;;13.97;68.05;101820.06;5019609;28;45429;-44
2022/10/08 05:38:45;;;;;;;;;4.00;2.00;;;;;13.98;68.08;101832.44;5019726;28;45435;-46
2022/10/08 05:41:20;;;;;;;;;8.33;3.00;;;;;13.95;68.23;101825.56;5019298;28;46238;-44
2022/10/08 05:43:46;;;;;;;;;2.00;2.00;;;;;13.94;68.02;101823.84;5019078;28;45232;-44
2022/10/08 05:46:12;;;;;;;;;3.00;3.00;;;;;13.93;68.55;101834.72;5019089;28;45346;-46
2022/10/08 05:48:38;;;;;;;;;3.67;1.67;;;;;13.92;68.38;101835.72;5019392;28;45514;-47
2022/10/08 05:51:09;;;;;;;;;2.00;1.00;;;;;13.81;68.58;101814.44;5019171;28;46915;-45
2022/10/08 05:53:39;;;;;;;;;2.00;2.00;;;;;13.90;68.54;101835.84;5019004;28;45282;-44
2022/10/08 05:56:08;;;;;;;;;5.33;2.00;;;;;13.90;68.96;101843.84;5019037;28;45333;-43
2022/10/08 05:58:35;;;;;;;;;7.33;2.67;;;;;13.89;68.22;101834.16;5019154;28;45312;-45
2022/10/08 06:01:03;;;;;;;;;2.33;0.00;;;;;13.85;69.32;101832.75;5019094;28;46219;-44
2022/10/08 06:03:29;;;;;;;;;2.00;2.00;;;;;13.88;68.96;101843.16;5018093;28;45362;-45
2022/10/08 06:05:54;;;;;;;;;2.33;0.67;;;;;13.86;68.93;101839.81;5018632;28;45274;-45
2022/10/08 06:08:21;;;;;;;;;3.00;3.00;;;;;13.86;69.38;101852.31;5019264;28;45475;-43
2022/10/08 06:10:53;;;;;;;;;4.67;2.00;;;;;13.87;68.66;101852.19;5018732;28;46966;-48
2022/10/08 06:13:20;;;;;;;;;4.33;2.33;;;;;13.88;69.23;101858.38;5000846;28;45346;-46
2022/10/08 06:15:55;;;;;;;;;4.00;2.00;;;;;13.87;68.53;101846.00;5018853;28;45735;-45
2022/10/08 06:18:21;;;;;;;;;2.67;2.67;;;;;13.87;69.29;101857.53;5018809;28;45277;-45
2022/10/08 06:20:46;;;;;;;;;6.33;3.00;;;;;13.91;68.85;101866.13;5018647;28;46085;-46
2022/10/08 06:23:11;;;;;;;;;3.67;2.67;;;;;13.93;68.83;101866.81;5000686;28;48279;-48
2022/10/08 06:25:37;;;;;;;;;2.00;2.00;;;;;13.93;69.25;101854.28;5018952;28;45505;-44
2022/10/08 06:28:02;;;;;;;;;5.33;1.67;;;;;13.96;69.27;101870.06;5019316;28;45367;-47
2022/10/08 06:30:27;;;;;;;;;4.00;3.33;;;;;13.98;69.06;101867.22;5018382;28;47090;-44
2022/10/08 06:32:53;;;;;;;;;2.33;2.33;;;;;14.01;68.42;101866.94;5018281;28;45480;-45
2022/10/08 06:35:18;;;;;;;;;4.33;2.00;;;;;14.04;69.18;101874.72;5018724;28;45759;-45
2022/10/08 06:37:46;;;;;;;;;6.33;2.00;;;;;14.07;68.66;101887.78;5018495;28;45420;-46
2022/10/08 06:40:12;;;;;;;;;6.67;1.67;;;;;14.07;68.38;101882.44;5018203;28;45448;-46
2022/10/08 06:42:37;;;;;;;;;8.00;3.00;;;;;14.11;68.76;101894.53;5018170;28;45369;-44
2022/10/08 06:45:03;;;;;;;;;5.00;3.00;;;;;14.13;68.36;101887.22;5018126;28;45397;-44
2022/10/08 06:47:28;;;;;;;;;3.00;2.00;;;;;14.15;68.66;101889.75;5018331;28;45501;-45
2022/10/08 06:49:54;;;;;;;;;6.00;2.33;;;;;14.18;68.70;101890.31;5018056;28;46363;-47
2022/10/08 06:52:19;;;;;;;;;6.67;2.00;;;;;14.20;67.73;101892.88;5017750;28;45397;-44
2022/10/08 06:54:44;;;;;;;;;4.00;3.33;;;;;14.20;68.41;101904.41;5018110;28;45320;-46
2022/10/08 06:57:10;;;;;;;;;5.00;3.00;;;;;14.22;68.43;101902.44;5018377;28;45371;-47
2022/10/08 06:59:35;;;;;;;;;2.67;2.67;;;;;14.24;68.15;101899.59;5017913;28;46933;-45
2022/10/08 07:02:00;;;;;;;;;8.67;2.33;;;;;14.27;68.25;101906.50;5018049;28;45398;-45
2022/10/08 07:04:26;;;;;;;;;5.33;2.00;;;;;14.29;68.51;101901.88;5017931;28;45218;-46
2022/10/08 07:06:51;;;;;;;;;5.33;2.00;;;;;14.30;68.46;101914.25;5018533;28;45321;-46
2022/10/08 07:09:16;;;;;;;;;5.33;2.00;;;;;14.32;68.27;101913.13;5018216;28;45578;-44
2022/10/08 07:11:42;;;;;;;;;2.00;2.00;;;;;14.35;68.11;101912.84;5018326;28;45342;-45
2022/10/08 07:14:07;;;;;;;;;1.67;1.33;;;;;14.38;67.94;101923.28;5000259;28;45348;-45
2022/10/08 07:16:33;;;;;;;;;1.00;1.00;;;;;14.41;67.77;101924.78;5018016;28;45339;-46
2022/10/08 07:18:58;;;;;;;;;5.67;2.33;;;;;14.45;68.48;101931.56;5017386;28;46196;-45
2022/10/08 07:21:24;;;;;;;;;3.00;3.00;;;;;14.48;68.06;101939.31;5018029;28;45262;-47
2022/10/08 07:23:50;;;;;;;;;5.67;2.00;;;;;14.51;67.57;101947.09;5017814;28;45242;-46
2022/10/08 07:26:18;;;;;;;;;3.00;3.00;;;;;14.54;67.90;101946.81;5017311;28;45226;-46
2022/10/08 07:28:56;;;;;;;;;7.00;3.00;;;;;14.57;67.31;101941.16;4999947;28;46454;-46
2022/10/08 07:31:26;;;;;;;;;3.67;2.00;;;;;14.60;67.70;101948.91;5017690;28;45278;-47
2022/10/08 07:33:52;;;;;;;;;4.00;3.00;;;;;14.58;67.78;101942.00;5017650;28;45486;-46
2022/10/08 07:36:20;;;;;;;;;3.67;3.00;;;;;14.66;67.57;101947.47;5017760;28;45411;-48
2022/10/08 07:38:46;;;;;;;;;5.00;4.00;;;;;14.71;67.71;101955.94;5017565;28;46198;-48
2022/10/08 07:41:13;;;;;;;;;2.67;2.67;;;;;14.76;67.46;101959.03;5017416;28;45450;-46
2022/10/08 07:43:40;;;;;;;;;5.00;3.67;;;;;14.67;66.93;101943.84;5017516;28;45240;-47
2022/10/08 07:46:06;;;;;;;;;7.33;4.00;;;;;14.78;67.11;101959.72;5017401;28;45463;-48
2022/10/08 07:48:32;;;;;;;;;3.00;3.00;;;;;14.91;67.19;101975.47;5016950;28;47302;-47
2022/10/08 07:51:12;;;;;;;;;4.33;3.00;;;;;14.95;66.44;101972.38;5017089;28;45337;-45
2022/10/08 07:53:38;;;;;;;;;8.00;5.67;;;;;15.01;67.01;101979.00;5017160;28;45354;-46
2022/10/08 07:56:05;;;;;;;;;10.00;2.00;;;;;15.06;67.19;101981.25;5017494;28;45254;-49
2022/10/08 07:58:32;;;;;;;;;4.00;2.00;;;;;15.11;66.22;101971.75;5016876;28;46445;-47
2022/10/08 08:00:58;;;;;;;;;5.00;3.67;;;;;15.24;66.69;101990.19;5016880;28;45246;-49
2022/10/08 08:03:24;;;;;;;;;3.00;3.00;;;;;15.32;66.51;101989.47;5017080;28;45396;-46
2022/10/08 08:05:49;;;;;;;;;6.33;4.00;;;;;15.45;66.19;101998.00;5017482;28;45309;-45
2022/10/08 08:08:15;;;;;;;;;8.00;4.00;;;;;15.58;65.53;101987.78;5016912;28;46038;-47
2022/10/08 08:10:40;;;;;;;;;7.00;3.67;;;;;15.74;65.37;101995.22;5017085;28;45335;-47
2022/10/08 08:13:05;;;;;;;;;4.00;4.00;;;;;15.93;65.21;101988.91;5017294;28;45441;-48
2022/10/08 08:15:31;;;;;;;;;3.00;2.67;;;;;16.15;64.31;101993.81;5017301;28;45377;-46
2022/10/08 08:17:56;;;;;;;;;8.33;4.00;;;;;16.36;63.44;101995.38;5016759;28;45428;-49
2022/10/08 08:20:21;;;;;;;;;6.67;4.67;;;;;16.90;62.63;101996.16;5016814;28;45332;-48
2022/10/08 08:22:47;;;;;;;;;5.00;3.00;;;;;18.63;58.65;102005.50;5017017;28;45378;-51
2022/10/08 08:25:12;;;;;;;;;5.00;4.33;;;;;20.37;54.21;102009.09;5017177;28;45294;-47
2022/10/08 08:27:38;;;;;;;;;4.33;3.00;;;;;22.06;49.89;101996.81;5017951;28;46313;-48
2022/10/08 08:30:04;;;;;;;;;5.00;3.33;;;;;23.01;47.03;102007.31;5020418;28;45461;-48
2022/10/08 08:32:29;;;;;;;;;5.75;2.50;;;;;24.13;44.45;102004.28;5020395;28;45246;-49
2022/10/08 08:34:54;;;;;;;;;5.00;4.50;;;;;25.39;41.62;102011.63;5020489;28;45523;-49
2022/10/08 08:37:20;;;;;;;;;10.50;3.75;;;;;26.30;39.25;102005.13;5020204;28;45242;-48
2022/10/08 08:39:45;;;;;;;;;4.75;3.00;;;;;26.99;38.26;102015.06;5020129;28;45195;-48
2022/10/08 08:42:19;;;;;;;;;5.75;3.75;;;;;27.04;38.01;102012.47;5019041;28;45166;-47
2022/10/08 08:45:00;;;;;;;;;6.00;4.00;;;;;26.62;38.65;102011.41;5020424;28;45270;-48
2022/10/08 08:48:01;;;;;;;;;6.60;2.00;;;;;26.29;39.44;102022.53;5019925;28;46277;-47
2022/10/08 08:50:34;;;;;;;;;3.40;3.00;;;;;26.26;39.40;102023.00;5005715;28;45171;-46
2022/10/08 08:53:01;;;;;;;;;7.20;5.00;;;;;26.31;39.20;102026.72;5019986;28;45287;-47
2022/10/08 08:55:39;;;;;;;;;7.40;3.20;;;;;26.36;39.77;102020.59;5020312;28;45464;-46
2022/10/08 08:58:24;;;;;;;;;3.20;3.20;;;;;26.51;38.08;102029.34;5019866;28;47049;-48
2022/10/08 09:01:19;;;;;;;;;7.20;3.80;;;;;26.75;37.72;102018.63;5019848;28;45331;-46
2022/10/08 09:03:54;;;;;;;;;3.80;2.80;;;;;27.71;35.47;102028.97;5019311;28;45332;-47
2022/10/08 09:06:24;;;;;;;;;4.00;2.80;;;;;28.80;34.12;102027.00;5019952;28;45518;-46
2022/10/08 09:09:08;;;;;;;;;5.00;3.60;;;;;29.80;32.82;102038.84;5019739;28;46028;-46
2022/10/08 09:11:38;;;;;;;;;8.60;2.40;;;;;30.64;32.98;102036.28;5019691;28;45170;-46
2022/10/08 09:14:35;;;;;;;;;4.80;3.80;;;;;30.97;30.26;102038.19;5020005;28;45585;-47
2022/10/08 09:17:13;;;;;;;;;9.00;4.00;;;;;31.77;30.54;102028.56;5018667;28;45430;-48
2022/10/08 09:19:39;;;;;;;;;3.80;2.60;;;;;32.38;27.81;102033.03;5018904;28;45244;-47
2022/10/08 09:22:38;;;;;;;;;6.25;3.25;;;;;32.86;27.14;102040.31;5019601;28;45425;-51
2022/10/08 09:25:20;;;;;;;;;4.20;3.00;;;;;33.10;27.51;102029.78;4938887;28;45385;-47
2022/10/08 09:27:51;;;;;;;;;2.00;2.00;;;;;33.71;26.24;102043.88;4939216;28;45553;-49
2022/10/08 09:30:23;;;;;;;;;5.00;3.40;;;;;34.19;25.39;102040.97;4938682;28;45630;-47
2022/10/08 09:32:49;;;;;;;;;4.20;3.40;;;;;34.28;24.52;102016.41;4939043;28;45473;-47
2022/10/08 09:35:14;;;;;;;;;2.80;2.20;;;;;34.92;23.97;102047.06;4938769;28;45449;-49
2022/10/08 09:37:46;;;;;;;;;3.00;3.00;;;;;35.24;24.26;102052.28;4939387;28;45348;-49
2022/10/08 09:40:11;;;;;;;;;3.00;1.00;;;;;33.27;24.54;102048.88;4938656;28;45318;-49
2022/10/08 09:42:37;;;;;;;;;3.50;3.00;;;;;33.51;25.35;102049.31;4938662;28;45234;-51
2022/10/08 09:45:23;;;;;;;;;4.00;1.50;;;;;34.56;23.94;102059.28;4939050;28;45312;-47
2022/10/08 09:48:15;;;;;;;;;3.20;1.60;;;;;33.08;25.34;102059.56;4938930;28;45580;-47
2022/10/08 09:50:51;;;;;;;;;3.00;3.00;;;;;33.44;25.32;102051.44;4938590;28;47035;-47
2022/10/08 09:53:18;;;;;;;;;2.40;2.40;;;;;33.92;23.78;102055.81;4938299;28;45224;-49
2022/10/08 09:56:03;;;;;;;;;2.80;2.00;;;;;33.75;24.55;102057.94;4938780;28;45557;-50
2022/10/08 09:58:32;;;;;;;;;2.00;2.00;;;;;32.78;25.04;102044.44;4938858;28;45463;-47
2022/10/08 10:01:14;;;;;;;;;4.20;2.20;;;;;32.77;24.99;102064.78;4940197;28;46286;-47
2022/10/08 10:03:57;;;;;;;;;3.00;2.00;;;;;34.10;23.71;102056.44;5009295;28;45473;-46
2022/10/08 10:06:27;;;;;;;;;3.80;2.80;;;;;34.23;23.79;102033.81;5019177;28;45392;-47
2022/10/08 10:09:06;;;;;;;;;4.60;2.00;;;;;33.06;24.97;102049.88;5019279;28;45359;-48
2022/10/08 10:11:38;;;;;;;;;2.20;2.00;;;;;31.26;26.83;102060.03;5018798;28;47278;-47
2022/10/08 10:14:19;;;;;;;;;1.80;0.00;;;;;29.77;27.17;102062.09;5018841;28;45293;-47
2022/10/08 10:16:51;;;;;;;;;0.60;0.60;;;;;30.51;27.26;102064.06;5018728;28;45344;-49
2022/10/08 10:19:21;;;;;;;;;0.80;0.80;;;;;31.23;26.22;102057.81;5018844;28;45250;-51
2022/10/08 10:21:56;;;;;;;;;2.00;1.00;;;;;31.28;26.54;102046.88;5018524;28;46107;-47
2022/10/08 10:24:52;;;;;;;;;2.80;1.00;;;;;30.45;27.27;102062.28;5017205;28;45507;-49
2022/10/08 10:27:25;;;;;;;;;0.60;0.60;;;;;30.79;27.65;102071.41;5018761;28;45285;-50
2022/10/08 10:30:03;;;;;;;;;1.00;1.00;;;;;31.22;26.21;102058.88;5018857;28;45331;-53
2022/10/08 10:32:35;;;;;;;;;4.20;1.20;;;;;31.65;25.09;102041.63;5018499;28;45250;-50
2022/10/08 10:35:12;;;;;;;;;2.80;0.60;;;;;31.99;25.55;102052.50;5018353;28;45418;-46
2022/10/08 10:37:52;;;;;;;;;1.00;1.00;;;;;32.30;25.14;102053.63;5018607;28;45341;-49
2022/10/08 10:40:36;;;;;;;;;1.40;1.00;;;;;32.80;25.23;102052.44;5018519;28;45434;-46
2022/10/08 10:43:28;;;;;;;;;0.80;0.80;;;;;32.17;25.61;102051.28;5018234;28;46069;-45
2022/10/08 10:46:00;;;;;;;;;3.60;2.00;;;;;31.04;25.57;102058.06;5018284;28;45317;-50
2022/10/08 10:48:25;;;;;;;;;3.80;2.60;;;;;29.98;27.32;102057.84;5018516;28;45375;-50
2022/10/08 10:51:15;;;;;;;;;2.50;1.50;;;;;29.15;28.39;102069.19;5017654;28;45530;-50
2022/10/08 10:54:10;;;;;;;;;3.60;2.00;;;;;29.72;26.83;102058.41;5017876;28;46371;-46
2022/10/08 10:56:41;;;;;;;;;2.80;2.00;;;;;29.92;27.03;102067.06;5018182;28;45303;-48
2022/10/08 10:59:18;;;;;;;;;0.80;0.20;;;;;28.54;27.50;102066.59;5018150;28;45463;-50
2022/10/08 11:02:34;;;;;;;;;1.80;1.00;;;;;26.97;29.66;102082.72;5018323;28;45451;-48
2022/10/08 11:05:12;;;;;;;;;2.20;1.00;;;;;27.96;28.53;102077.31;4937168;28;45392;-46
2022/10/08 11:07:58;;;;;;;;;0.80;0.80;;;;;31.51;24.89;102076.91;4937395;28;45293;-48
2022/10/08 11:10:38;;;;;;;;;1.20;1.20;;;;;34.84;21.71;102060.63;4937743;28;45354;-49
2022/10/08 11:13:23;;;;;;;;;0.80;0.80;;;;;37.40;19.96;102056.00;4937654;28;45385;-49
2022/10/08 11:15:58;;;;;;;;;0.40;0.40;;;;;39.25;18.09;102062.31;4937358;28;47169;-49
2022/10/08 11:19:00;;;;;;;;;1.80;1.80;;;;;39.45;18.03;102064.69;4937743;28;45418;-50
2022/10/08 11:21:57;;;;;;;;;0.80;0.80;;;;;37.45;19.73;102078.16;4898969;29;45443;-49
2022/10/08 11:24:44;;;;;;;;;5.00;2.00;;;;;39.20;18.49;102066.00;4898989;29;45499;-49
2022/10/08 11:27:45;;;;;;;;;1.20;0.20;;;;;39.75;17.20;102062.38;4898921;29;45531;-49
2022/10/08 11:30:19;;;;;;;;;0.80;0.80;;;;;36.48;19.10;102061.63;4898965;29;45474;-50
2022/10/08 11:32:51;;;;;;;;;0.60;0.00;;;;;34.00;21.41;102065.50;4898696;29;45435;-50
2022/10/08 11:35:33;;;;;;;;;0.80;0.00;;;;;33.75;22.31;102071.75;4899083;29;45403;-47
2022/10/08 11:38:07;;;;;;;;;1.00;1.00;;;;;33.88;21.01;102062.97;4898685;29;45536;-48
2022/10/08 11:40:58;;;;;;;;;1.00;1.00;;;;;31.33;22.83;102060.72;4909785;28;45430;-47
2022/10/08 11:43:32;;;;;;;;;3.00;1.40;;;;;32.56;22.52;102059.38;4917781;28;45496;-47
2022/10/08 11:46:27;;;;;;;;;2.20;0.20;;;;;35.10;21.27;102064.19;4917877;28;45356;-52